sensor_id;sensor_type;location;lat;lon;timestamp;pressure;altitude;pressure_sealevel;temperature;humidity
36834;BME280;48003;52.084;5.224;2023-04-28T00:01:33;101463.0;;;13.7;43.32
36834;BME280;48003;52.084;5.224;2023-04-28T00:03:09;101459.0;;;13.65;43.0
36834;BME280;48003;52.084;5.224;2023-04-28T00:04:45;101453.0;;;13.66;43.44
36834;BME280;48003;52.084;5.224;2023-04-28T00:06:21;101448.0;;;13.63;43.63
36834;BME280;48003;52.084;5.224;2023-04-28T00:09:33;101438.0;;;13.64;43.75
36834;BME280;48003;52.084;5.224;2023-04-28T00:11:11;101434.0;;;13.61;43.8
36834;BME280;48003;52.084;5.224;2023-04-28T00:12:47;101430.0;;;13.63;43.66
36834;BME280;48003;52.084;5.224;2023-04-28T00:16:00;101423.0;;;13.6;43.77
36834;BME280;48003;52.084;5.224;2023-04-28T00:17:36;101416.0;;;13.61;43.89
36834;BME280;48003;52.084;5.224;2023-04-28T00:19:12;101411.0;;;13.61;43.92
36834;BME280;48003;52.084;5.224;2023-04-28T00:22:24;101407.0;;;13.57;43.75
36834;BME280;48003;52.084;5.224;2023-04-28T00:24:00;101405.0;;;13.56;43.74
36834;BME280;48003;52.084;5.224;2023-04-28T00:25:36;101405.0;;;13.56;43.7
36834;BME280;48003;52.084;5.224;2023-04-28T00:28:49;101400.0;;;13.55;44.13
36834;BME280;48003;52.084;5.224;2023-04-28T00:30:25;101400.0;;;13.53;44.29
36834;BME280;48003;52.084;5.224;2023-04-28T00:32:02;101398.0;;;13.5;44.62
36834;BME280;48003;52.084;5.224;2023-04-28T00:33:38;101397.0;;;13.47;44.34
36834;BME280;48003;52.084;5.224;2023-04-28T00:36:51;101391.0;;;13.47;44.47
36834;BME280;48003;52.084;5.224;2023-04-28T00:38:27;101391.0;;;13.45;44.51
36834;BME280;48003;52.084;5.224;2023-04-28T00:40:04;101395.0;;;13.47;44.25
36834;BME280;48003;52.084;5.224;2023-04-28T00:43:16;101393.0;;;13.46;43.91
36834;BME280;48003;52.084;5.224;2023-04-28T00:44:52;101390.0;;;13.44;43.98
36834;BME280;48003;52.084;5.224;2023-04-28T00:46:30;101388.0;;;13.48;44.27
36834;BME280;48003;52.084;5.224;2023-04-28T00:49:45;101388.0;;;13.43;43.9
36834;BME280;48003;52.084;5.224;2023-04-28T00:51:22;101386.0;;;13.42;44.04
36834;BME280;48003;52.084;5.224;2023-04-28T00:52:59;101381.0;;;13.39;44.58
36834;BME280;48003;52.084;5.224;2023-04-28T00:54:36;101375.0;;;13.47;44.49
36834;BME280;48003;52.084;5.224;2023-04-28T00:57:50;101365.0;;;13.45;44.51
36834;BME280;48003;52.084;5.224;2023-04-28T00:59:27;101356.0;;;13.45;44.67
36834;BME280;48003;52.084;5.224;2023-04-28T01:01:03;101353.0;;;13.42;44.65
36834;BME280;48003;52.084;5.224;2023-04-28T01:04:19;101352.0;;;13.42;44.51
36834;BME280;48003;52.084;5.224;2023-04-28T01:05:55;101353.0;;;13.36;44.84
36834;BME280;48003;52.084;5.224;2023-04-28T01:07:32;101356.0;;;13.34;45.01
36834;BME280;48003;52.084;5.224;2023-04-28T01:09:08;101355.0;;;13.43;44.28
36834;BME280;48003;52.084;5.224;2023-04-28T01:12:21;101355.0;;;13.4;44.57
36834;BME280;48003;52.084;5.224;2023-04-28T01:13:57;101355.0;;;13.39;44.26
36834;BME280;48003;52.084;5.224;2023-04-28T01:18:47;101355.0;;;13.42;44.37
36834;BME280;48003;52.084;5.224;2023-04-28T01:20:23;101357.0;;;13.37;44.52
36834;BME280;48003;52.084;5.224;2023-04-28T01:21:59;101351.0;;;13.36;44.37
36834;BME280;48003;52.084;5.224;2023-04-28T01:25:11;101355.0;;;13.39;44.37
36834;BME280;48003;52.084;5.224;2023-04-28T01:26:47;101349.0;;;13.41;44.09
36834;BME280;48003;52.084;5.224;2023-04-28T01:28:23;101345.0;;;13.35;44.08
36834;BME280;48003;52.084;5.224;2023-04-28T01:30:00;101340.0;;;13.37;44.13
36834;BME280;48003;52.084;5.224;2023-04-28T01:33:12;101341.0;;;13.47;43.92
36834;BME280;48003;52.084;5.224;2023-04-28T01:34:48;101333.0;;;13.42;43.93
36834;BME280;48003;52.084;5.224;2023-04-28T01:36:25;101332.0;;;13.37;44.34
36834;BME280;48003;52.084;5.224;2023-04-28T01:39:37;101322.0;;;13.39;43.79
36834;BME280;48003;52.084;5.224;2023-04-28T01:41:14;101317.0;;;13.38;43.66
36834;BME280;48003;52.084;5.224;2023-04-28T01:46:02;101310.0;;;13.38;43.62
36834;BME280;48003;52.084;5.224;2023-04-28T01:47:38;101306.0;;;13.31;43.75
36834;BME280;48003;52.084;5.224;2023-04-28T01:49:14;101310.0;;;13.32;44.12
36834;BME280;48003;52.084;5.224;2023-04-28T01:52:26;101308.0;;;13.25;44.82
36834;BME280;48003;52.084;5.224;2023-04-28T01:54:02;101308.0;;;13.31;44.27
36834;BME280;48003;52.084;5.224;2023-04-28T01:55:39;101305.0;;;13.29;44.49
36834;BME280;48003;52.084;5.224;2023-04-28T01:57:15;101305.0;;;13.3;44.52
36834;BME280;48003;52.084;5.224;2023-04-28T02:00:27;101303.0;;;13.31;44.24
36834;BME280;48003;52.084;5.224;2023-04-28T02:02:03;101305.0;;;13.33;44.56
36834;BME280;48003;52.084;5.224;2023-04-28T02:03:39;101300.0;;;13.38;44.44
36834;BME280;48003;52.084;5.224;2023-04-28T02:06:51;101297.0;;;13.36;44.65
36834;BME280;48003;52.084;5.224;2023-04-28T02:08:27;101292.0;;;13.32;44.17
36834;BME280;48003;52.084;5.224;2023-04-28T02:10:04;101297.0;;;13.28;44.59
36834;BME280;48003;52.084;5.224;2023-04-28T02:13:17;101294.0;;;13.25;44.74
36834;BME280;48003;52.084;5.224;2023-04-28T02:14:53;101288.0;;;13.22;44.72
36834;BME280;48003;52.084;5.224;2023-04-28T02:16:29;101287.0;;;13.22;44.74
36834;BME280;48003;52.084;5.224;2023-04-28T02:19:41;101285.0;;;13.24;44.46
36834;BME280;48003;52.084;5.224;2023-04-28T02:21:17;101283.0;;;13.23;44.49
36834;BME280;48003;52.084;5.224;2023-04-28T02:22:53;101278.0;;;13.17;44.81
36834;BME280;48003;52.084;5.224;2023-04-28T02:24:30;101275.0;;;13.14;44.93
36834;BME280;48003;52.084;5.224;2023-04-28T02:27:45;101276.0;;;13.13;44.92
36834;BME280;48003;52.084;5.224;2023-04-28T02:29:21;101273.0;;;13.09;44.78
36834;BME280;48003;52.084;5.224;2023-04-28T02:31:13;101273.0;;;13.12;44.83
36834;BME280;48003;52.084;5.224;2023-04-28T02:32:49;101270.0;;;13.1;45.21
36834;BME280;48003;52.084;5.224;2023-04-28T02:36:03;101268.0;;;13.08;45.62
36834;BME280;48003;52.084;5.224;2023-04-28T02:37:40;101267.0;;;13.07;45.54
36834;BME280;48003;52.084;5.224;2023-04-28T02:39:16;101263.0;;;13.05;45.5
36834;BME280;48003;52.084;5.224;2023-04-28T02:42:33;101259.0;;;13.06;45.23
36834;BME280;48003;52.084;5.224;2023-04-28T02:44:09;101255.0;;;13.05;45.28
36834;BME280;48003;52.084;5.224;2023-04-28T02:45:46;101250.0;;;13.04;45.67
36834;BME280;48003;52.084;5.224;2023-04-28T02:48:57;101243.0;;;13.01;45.54
36834;BME280;48003;52.084;5.224;2023-04-28T02:50:33;101236.0;;;13.01;45.88
36834;BME280;48003;52.084;5.224;2023-04-28T02:52:10;101232.0;;;13.03;45.91
36834;BME280;48003;52.084;5.224;2023-04-28T02:53:46;101228.0;;;13.01;45.54
36834;BME280;48003;52.084;5.224;2023-04-28T02:56:58;101225.0;;;13.05;45.75
36834;BME280;48003;52.084;5.224;2023-04-28T02:58:34;101222.0;;;13.05;46.21
36834;BME280;48003;52.084;5.224;2023-04-28T03:00:11;101221.0;;;13.05;45.99
36834;BME280;48003;52.084;5.224;2023-04-28T03:03:24;101215.0;;;13.08;45.84
36834;BME280;48003;52.084;5.224;2023-04-28T03:05:01;101217.0;;;13.04;45.65
36834;BME280;48003;52.084;5.224;2023-04-28T03:06:37;101214.0;;;12.95;46.17
36834;BME280;48003;52.084;5.224;2023-04-28T03:09:49;101212.0;;;12.96;46.67
36834;BME280;48003;52.084;5.224;2023-04-28T03:11:25;101211.0;;;12.95;46.61
36834;BME280;48003;52.084;5.224;2023-04-28T03:13:01;101205.0;;;12.92;46.54
36834;BME280;48003;52.084;5.224;2023-04-28T03:14:37;101205.0;;;12.92;46.34
36834;BME280;48003;52.084;5.224;2023-04-28T03:17:50;101203.0;;;12.9;46.41
36834;BME280;48003;52.084;5.224;2023-04-28T03:19:26;101205.0;;;12.94;46.66
36834;BME280;48003;52.084;5.224;2023-04-28T03:21:02;101203.0;;;12.98;46.46
36834;BME280;48003;52.084;5.224;2023-04-28T03:24:14;101207.0;;;12.95;46.75
36834;BME280;48003;52.084;5.224;2023-04-28T03:25:50;101211.0;;;12.96;46.58
36834;BME280;48003;52.084;5.224;2023-04-28T03:27:27;101211.0;;;12.92;46.58
36834;BME280;48003;52.084;5.224;2023-04-28T03:30:39;101205.0;;;12.92;46.77
36834;BME280;48003;52.084;5.224;2023-04-28T03:32:15;101202.0;;;12.91;46.79
36834;BME280;48003;52.084;5.224;2023-04-28T03:33:51;101198.0;;;12.92;47.15
36834;BME280;48003;52.084;5.224;2023-04-28T03:37:03;101192.0;;;12.9;47.2
36834;BME280;48003;52.084;5.224;2023-04-28T03:38:40;101195.0;;;12.9;46.97
36834;BME280;48003;52.084;5.224;2023-04-28T03:40:15;101186.0;;;13.0;46.6
36834;BME280;48003;52.084;5.224;2023-04-28T03:41:51;101190.0;;;13.01;46.5
36834;BME280;48003;52.084;5.224;2023-04-28T03:45:04;101185.0;;;13.0;46.39
36834;BME280;48003;52.084;5.224;2023-04-28T03:46:41;101185.0;;;12.93;46.71
36834;BME280;48003;52.084;5.224;2023-04-28T03:48:17;101184.0;;;12.93;46.66
36834;BME280;48003;52.084;5.224;2023-04-28T03:51:29;101180.0;;;12.99;46.64
36834;BME280;48003;52.084;5.224;2023-04-28T03:53:05;101180.0;;;13.07;46.35
36834;BME280;48003;52.084;5.224;2023-04-28T03:54:41;101178.0;;;13.08;46.63
36834;BME280;48003;52.084;5.224;2023-04-28T03:57:54;101172.0;;;13.01;46.95
36834;BME280;48003;52.084;5.224;2023-04-28T03:59:31;101165.0;;;13.02;46.98
36834;BME280;48003;52.084;5.224;2023-04-28T04:01:07;101158.0;;;12.97;47.25
36834;BME280;48003;52.084;5.224;2023-04-28T04:02:43;101153.0;;;13.06;47.03
36834;BME280;48003;52.084;5.224;2023-04-28T04:05:55;101155.0;;;13.02;46.99
36834;BME280;48003;52.084;5.224;2023-04-28T04:07:31;101151.0;;;13.06;47.0
36834;BME280;48003;52.084;5.224;2023-04-28T04:09:07;101142.0;;;12.96;46.8
36834;BME280;48003;52.084;5.224;2023-04-28T04:12:20;101142.0;;;13.02;46.76
36834;BME280;48003;52.084;5.224;2023-04-28T04:13:56;101148.0;;;12.94;47.13
36834;BME280;48003;52.084;5.224;2023-04-28T04:15:32;101150.0;;;12.92;47.21
36834;BME280;48003;52.084;5.224;2023-04-28T04:18:44;101152.0;;;13.01;47.1
36834;BME280;48003;52.084;5.224;2023-04-28T04:20:21;101151.0;;;12.99;47.19
36834;BME280;48003;52.084;5.224;2023-04-28T04:21:57;101148.0;;;12.99;47.1
36834;BME280;48003;52.084;5.224;2023-04-28T04:25:10;101138.0;;;13.02;47.49
36834;BME280;48003;52.084;5.224;2023-04-28T04:26:46;101135.0;;;13.1;47.61
36834;BME280;48003;52.084;5.224;2023-04-28T04:28:22;101132.0;;;13.1;47.55
36834;BME280;48003;52.084;5.224;2023-04-28T04:29:58;101132.0;;;13.08;47.68
36834;BME280;48003;52.084;5.224;2023-04-28T04:33:11;101126.0;;;13.03;47.76
36834;BME280;48003;52.084;5.224;2023-04-28T04:34:46;101117.0;;;13.0;48.2
36834;BME280;48003;52.084;5.224;2023-04-28T04:36:22;101119.0;;;12.99;47.77
36834;BME280;48003;52.084;5.224;2023-04-28T04:39:35;101123.0;;;12.87;48.29
36834;BME280;48003;52.084;5.224;2023-04-28T04:41:11;101122.0;;;12.85;48.35
36834;BME280;48003;52.084;5.224;2023-04-28T04:42:47;101117.0;;;12.85;48.45
36834;BME280;48003;52.084;5.224;2023-04-28T04:45:59;101112.0;;;13.06;48.28
36834;BME280;48003;52.084;5.224;2023-04-28T04:47:35;101110.0;;;13.24;47.75
36834;BME280;48003;52.084;5.224;2023-04-28T04:49:11;101103.0;;;13.18;48.12
36834;BME280;48003;52.084;5.224;2023-04-28T04:52:24;101102.0;;;13.16;48.26
36834;BME280;48003;52.084;5.224;2023-04-28T04:54:00;101095.0;;;13.05;48.71
36834;BME280;48003;52.084;5.224;2023-04-28T04:55:36;101092.0;;;13.05;48.84
36834;BME280;48003;52.084;5.224;2023-04-28T04:57:12;101089.0;;;13.12;48.83
36834;BME280;48003;52.084;5.224;2023-04-28T05:00:28;101091.0;;;13.08;49.12
36834;BME280;48003;52.084;5.224;2023-04-28T05:02:04;101092.0;;;13.09;49.09
36834;BME280;48003;52.084;5.224;2023-04-28T05:03:40;101095.0;;;13.11;49.13
36834;BME280;48003;52.084;5.224;2023-04-28T05:06:52;101093.0;;;13.19;49.01
36834;BME280;48003;52.084;5.224;2023-04-28T05:08:28;101086.0;;;13.17;49.18
36834;BME280;48003;52.084;5.224;2023-04-28T05:10:05;101076.0;;;13.34;48.95
36834;BME280;48003;52.084;5.224;2023-04-28T05:13:17;101073.0;;;13.33;49.29
36834;BME280;48003;52.084;5.224;2023-04-28T05:14:53;101080.0;;;13.3;49.77
36834;BME280;48003;52.084;5.224;2023-04-28T05:18:06;101097.0;;;13.33;49.89
36834;BME280;48003;52.084;5.224;2023-04-28T05:21:18;101105.0;;;13.35;50.24
36834;BME280;48003;52.084;5.224;2023-04-28T05:22:54;101113.0;;;13.22;50.55
36834;BME280;48003;52.084;5.224;2023-04-28T05:24:30;101115.0;;;13.2;51.1
36834;BME280;48003;52.084;5.224;2023-04-28T05:27:42;101110.0;;;13.11;51.3
36834;BME280;48003;52.084;5.224;2023-04-28T05:29:19;101114.0;;;13.09;51.68
36834;BME280;48003;52.084;5.224;2023-04-28T05:30:55;101108.0;;;13.07;52.18
36834;BME280;48003;52.084;5.224;2023-04-28T05:34:09;101103.0;;;13.04;53.08
36834;BME280;48003;52.084;5.224;2023-04-28T05:35:45;101102.0;;;13.1;53.35
36834;BME280;48003;52.084;5.224;2023-04-28T05:37:22;101095.0;;;13.06;53.93
36834;BME280;48003;52.084;5.224;2023-04-28T05:38:58;101093.0;;;13.08;54.54
36834;BME280;48003;52.084;5.224;2023-04-28T05:42:11;101099.0;;;13.11;55.41
36834;BME280;48003;52.084;5.224;2023-04-28T05:43:47;101100.0;;;13.12;56.19
36834;BME280;48003;52.084;5.224;2023-04-28T05:45:23;101105.0;;;13.11;56.8
36834;BME280;48003;52.084;5.224;2023-04-28T05:48:36;101108.0;;;13.03;57.39
36834;BME280;48003;52.084;5.224;2023-04-28T05:50:13;101111.0;;;13.01;58.5
36834;BME280;48003;52.084;5.224;2023-04-28T05:51:49;101105.0;;;12.93;59.55
36834;BME280;48003;52.084;5.224;2023-04-28T05:55:02;101111.0;;;12.9;60.84
36834;BME280;48003;52.084;5.224;2023-04-28T05:56:38;101112.0;;;12.9;60.78
36834;BME280;48003;52.084;5.224;2023-04-28T05:58:14;101109.0;;;12.87;61.42
36834;BME280;48003;52.084;5.224;2023-04-28T06:01:26;101107.0;;;13.0;61.48
36834;BME280;48003;52.084;5.224;2023-04-28T06:03:04;101105.0;;;13.06;61.42
36834;BME280;48003;52.084;5.224;2023-04-28T06:04:41;101098.0;;;13.04;62.08
36834;BME280;48003;52.084;5.224;2023-04-28T06:06:17;101093.0;;;13.11;62.28
36834;BME280;48003;52.084;5.224;2023-04-28T06:11:05;101081.0;;;13.22;62.65
36834;BME280;48003;52.084;5.224;2023-04-28T06:12:41;101074.0;;;13.27;61.93
36834;BME280;48003;52.084;5.224;2023-04-28T06:15:53;101072.0;;;13.19;63.04
36834;BME280;48003;52.084;5.224;2023-04-28T06:17:29;101082.0;;;13.16;63.1
36834;BME280;48003;52.084;5.224;2023-04-28T06:19:06;101080.0;;;13.29;62.46
36834;BME280;48003;52.084;5.224;2023-04-28T06:22:18;101076.0;;;13.34;62.2
36834;BME280;48003;52.084;5.224;2023-04-28T06:23:54;101074.0;;;13.31;62.61
36834;BME280;48003;52.084;5.224;2023-04-28T06:25:30;101066.0;;;13.53;62.22
36834;BME280;48003;52.084;5.224;2023-04-28T06:27:06;101062.0;;;13.22;64.05
36834;BME280;48003;52.084;5.224;2023-04-28T06:30:20;101058.0;;;13.54;63.45
36834;BME280;48003;52.084;5.224;2023-04-28T06:31:57;101055.0;;;13.13;65.23
36834;BME280;48003;52.084;5.224;2023-04-28T06:33:34;101053.0;;;13.19;65.91
36834;BME280;48003;52.084;5.224;2023-04-28T06:36:46;101055.0;;;13.26;65.77
36834;BME280;48003;52.084;5.224;2023-04-28T06:38:22;101060.0;;;13.59;64.95
36834;BME280;48003;52.084;5.224;2023-04-28T06:39:58;101064.0;;;13.47;65.59
36834;BME280;48003;52.084;5.224;2023-04-28T06:43:11;101068.0;;;13.07;66.97
36834;BME280;48003;52.084;5.224;2023-04-28T06:44:46;101064.0;;;13.38;66.44
36834;BME280;48003;52.084;5.224;2023-04-28T06:46:23;101063.0;;;13.46;66.27
36834;BME280;48003;52.084;5.224;2023-04-28T06:47:59;101068.0;;;13.42;66.75
36834;BME280;48003;52.084;5.224;2023-04-28T06:51:10;101062.0;;;13.42;66.73
36834;BME280;48003;52.084;5.224;2023-04-28T06:52:46;101058.0;;;13.58;66.55
36834;BME280;48003;52.084;5.224;2023-04-28T06:54:22;101048.0;;;13.5;66.94
36834;BME280;48003;52.084;5.224;2023-04-28T06:57:36;101052.0;;;13.21;68.55
36834;BME280;48003;52.084;5.224;2023-04-28T06:59:12;101052.0;;;13.31;68.27
36834;BME280;48003;52.084;5.224;2023-04-28T07:00:48;101042.0;;;13.47;67.95
36834;BME280;48003;52.084;5.224;2023-04-28T07:04:00;101048.0;;;13.55;67.77
36834;BME280;48003;52.084;5.224;2023-04-28T07:05:36;101055.0;;;13.1;69.44
36834;BME280;48003;52.084;5.224;2023-04-28T07:07:12;101049.0;;;12.95;70.24
36834;BME280;48003;52.084;5.224;2023-04-28T07:10:25;101052.0;;;12.97;70.25
36834;BME280;48003;52.084;5.224;2023-04-28T07:12:01;101048.0;;;12.85;70.95
36834;BME280;48003;52.084;5.224;2023-04-28T07:13:38;101049.0;;;13.39;69.24
36834;BME280;48003;52.084;5.224;2023-04-28T07:15:14;101049.0;;;13.68;68.36
36834;BME280;48003;52.084;5.224;2023-04-28T07:18:26;101055.0;;;13.46;69.36
36834;BME280;48003;52.084;5.224;2023-04-28T07:20:03;101055.0;;;13.46;69.37
36834;BME280;48003;52.084;5.224;2023-04-28T07:21:39;101055.0;;;13.03;71.5
36834;BME280;48003;52.084;5.224;2023-04-28T07:24:52;101060.0;;;13.25;71.33
36834;BME280;48003;52.084;5.224;2023-04-28T07:26:29;101062.0;;;13.05;72.24
36834;BME280;48003;52.084;5.224;2023-04-28T07:28:05;101057.0;;;13.66;70.42
36834;BME280;48003;52.084;5.224;2023-04-28T07:31:18;101048.0;;;13.79;69.94
36834;BME280;48003;52.084;5.224;2023-04-28T07:32:54;101045.0;;;14.03;69.45
36834;BME280;48003;52.084;5.224;2023-04-28T07:34:30;101051.0;;;13.84;70.13
36834;BME280;48003;52.084;5.224;2023-04-28T07:36:07;101051.0;;;14.06;69.59
36834;BME280;48003;52.084;5.224;2023-04-28T07:39:19;101055.0;;;13.6;71.24
36834;BME280;48003;52.084;5.224;2023-04-28T07:40:55;101050.0;;;13.69;71.58
36834;BME280;48003;52.084;5.224;2023-04-28T07:42:31;101048.0;;;14.27;69.56
36834;BME280;48003;52.084;5.224;2023-04-28T07:45:43;101043.0;;;14.1;70.03
36834;BME280;48003;52.084;5.224;2023-04-28T07:47:19;101047.0;;;13.79;71.19
36834;BME280;48003;52.084;5.224;2023-04-28T07:48:55;101050.0;;;13.89;70.88
36834;BME280;48003;52.084;5.224;2023-04-28T07:52:09;101052.0;;;13.91;71.02
36834;BME280;48003;52.084;5.224;2023-04-28T07:53:45;101051.0;;;13.9;71.3
36834;BME280;48003;52.084;5.224;2023-04-28T07:55:21;101052.0;;;13.89;71.31
36834;BME280;48003;52.084;5.224;2023-04-28T07:58:33;101046.0;;;13.94;71.5
36834;BME280;48003;52.084;5.224;2023-04-28T08:00:10;101048.0;;;13.52;73.22
36834;BME280;48003;52.084;5.224;2023-04-28T08:01:47;101049.0;;;13.48;74.27
36834;BME280;48003;52.084;5.224;2023-04-28T08:03:23;101043.0;;;13.37;76.3
36834;BME280;48003;52.084;5.224;2023-04-28T08:06:35;101044.0;;;13.68;76.11
36834;BME280;48003;52.084;5.224;2023-04-28T08:08:11;101050.0;;;13.96;75.42
36834;BME280;48003;52.084;5.224;2023-04-28T08:09:48;101048.0;;;14.22;74.45
36834;BME280;48003;52.084;5.224;2023-04-28T08:13:01;101048.0;;;13.64;76.94
36834;BME280;48003;52.084;5.224;2023-04-28T08:14:37;101048.0;;;13.66;77.3
36834;BME280;48003;52.084;5.224;2023-04-28T08:16:13;101047.0;;;13.85;77.2
36834;BME280;48003;52.084;5.224;2023-04-28T08:19:26;101047.0;;;13.8;77.69
36834;BME280;48003;52.084;5.224;2023-04-28T08:21:02;101047.0;;;13.46;79.87
36834;BME280;48003;52.084;5.224;2023-04-28T08:22:38;101046.0;;;13.71;79.45
36834;BME280;48003;52.084;5.224;2023-04-28T08:24:14;101047.0;;;13.54;81.36
36834;BME280;48003;52.084;5.224;2023-04-28T08:27:27;101044.0;;;13.65;81.69
36834;BME280;48003;52.084;5.224;2023-04-28T08:29:03;101039.0;;;14.08;80.63
36834;BME280;48003;52.084;5.224;2023-04-28T08:30:39;101041.0;;;13.56;83.43
36834;BME280;48003;52.084;5.224;2023-04-28T08:33:51;101039.0;;;13.73;84.05
36834;BME280;48003;52.084;5.224;2023-04-28T08:35:28;101035.0;;;13.88;84.12
36834;BME280;48003;52.084;5.224;2023-04-28T08:37:05;101032.0;;;14.21;83.12
36834;BME280;48003;52.084;5.224;2023-04-28T08:40:18;101030.0;;;14.35;83.4
36834;BME280;48003;52.084;5.224;2023-04-28T08:41:55;101030.0;;;14.55;82.49
36834;BME280;48003;52.084;5.224;2023-04-28T08:43:31;101033.0;;;14.58;82.37
36834;BME280;48003;52.084;5.224;2023-04-28T08:45:12;101037.0;;;14.59;82.28
36834;BME280;48003;52.084;5.224;2023-04-28T08:48:29;101036.0;;;14.81;80.92
36834;BME280;48003;52.084;5.224;2023-04-28T08:50:14;101034.0;;;14.91;80.8
36834;BME280;48003;52.084;5.224;2023-04-28T08:51:55;101036.0;;;14.68;81.52
36834;BME280;48003;52.084;5.224;2023-04-28T08:53:37;101043.0;;;14.54;82.5
36834;BME280;48003;52.084;5.224;2023-04-28T08:56:51;101042.0;;;14.74;81.13
36834;BME280;48003;52.084;5.224;2023-04-28T08:58:27;101036.0;;;15.15;79.58
36834;BME280;48003;52.084;5.224;2023-04-28T09:03:16;101037.0;;;15.11;79.61
36834;BME280;48003;52.084;5.224;2023-04-28T09:04:52;101037.0;;;14.47;82.99
36834;BME280;48003;52.084;5.224;2023-04-28T09:06:31;101035.0;;;14.82;81.95
36834;BME280;48003;52.084;5.224;2023-04-28T09:08:08;101030.0;;;14.97;81.14
36834;BME280;48003;52.084;5.224;2023-04-28T09:11:20;101033.0;;;14.69;82.32
36834;BME280;48003;52.084;5.224;2023-04-28T09:12:56;101030.0;;;14.52;83.48
36834;BME280;48003;52.084;5.224;2023-04-28T09:14:34;101033.0;;;14.92;82.11
36834;BME280;48003;52.084;5.224;2023-04-28T09:17:48;101039.0;;;14.31;84.9
36834;BME280;48003;52.084;5.224;2023-04-28T09:19:31;101030.0;;;14.78;83.56
36834;BME280;48003;52.084;5.224;2023-04-28T09:21:09;101030.0;;;14.23;86.15
36834;BME280;48003;52.084;5.224;2023-04-28T09:24:25;101026.0;;;14.47;85.9
36834;BME280;48003;52.084;5.224;2023-04-28T09:26:06;101030.0;;;14.11;88.0
36834;BME280;48003;52.084;5.224;2023-04-28T09:27:43;101027.0;;;14.56;86.0
36834;BME280;48003;52.084;5.224;2023-04-28T09:29:19;101034.0;;;14.36;87.43
36834;BME280;48003;52.084;5.224;2023-04-28T09:32:31;101031.0;;;14.1;89.82
36834;BME280;48003;52.084;5.224;2023-04-28T09:34:07;101031.0;;;13.98;91.15
36834;BME280;48003;52.084;5.224;2023-04-28T09:35:44;101027.0;;;13.94;91.58
36834;BME280;48003;52.084;5.224;2023-04-28T09:38:59;101031.0;;;14.22;90.78
36834;BME280;48003;52.084;5.224;2023-04-28T09:40:49;101025.0;;;13.92;92.49
36834;BME280;48003;52.084;5.224;2023-04-28T09:42:30;101031.0;;;14.04;92.64
36834;BME280;48003;52.084;5.224;2023-04-28T09:44:10;101028.0;;;14.24;91.91
36834;BME280;48003;52.084;5.224;2023-04-28T09:47:22;101023.0;;;14.91;88.11
36834;BME280;48003;52.084;5.224;2023-04-28T09:49:00;101023.0;;;15.02;87.91
36834;BME280;48003;52.084;5.224;2023-04-28T09:50:39;101022.0;;;14.82;89.14
36834;BME280;48003;52.084;5.224;2023-04-28T09:52:15;101021.0;;;14.77;89.49
36834;BME280;48003;52.084;5.224;2023-04-28T09:55:29;101014.0;;;14.4;91.18
36834;BME280;48003;52.084;5.224;2023-04-28T09:57:09;101020.0;;;14.5;91.69
36834;BME280;48003;52.084;5.224;2023-04-28T09:58:46;101019.0;;;14.85;89.75
36834;BME280;48003;52.084;5.224;2023-04-28T10:02:04;101020.0;;;14.53;90.69
36834;BME280;48003;52.084;5.224;2023-04-28T10:03:40;101018.0;;;14.46;91.94
36834;BME280;48003;52.084;5.224;2023-04-28T10:05:17;101017.0;;;14.54;91.5
36834;BME280;48003;52.084;5.224;2023-04-28T10:06:56;101012.0;;;15.12;88.29
36834;BME280;48003;52.084;5.224;2023-04-28T10:10:11;101015.0;;;15.2;87.48
36834;BME280;48003;52.084;5.224;2023-04-28T10:11:46;101016.0;;;14.84;89.53
36834;BME280;48003;52.084;5.224;2023-04-28T10:13:23;101017.0;;;14.62;91.05
36834;BME280;48003;52.084;5.224;2023-04-28T10:16:37;101023.0;;;14.85;89.84
36834;BME280;48003;52.084;5.224;2023-04-28T10:18:14;101022.0;;;14.6;90.92
36834;BME280;48003;52.084;5.224;2023-04-28T10:19:52;101020.0;;;14.72;90.36
36834;BME280;48003;52.084;5.224;2023-04-28T10:21:32;101020.0;;;14.65;91.13
36834;BME280;48003;52.084;5.224;2023-04-28T10:26:04;101021.0;;;15.02;89.33
36834;BME280;48003;52.084;5.224;2023-04-28T10:27:46;101025.0;;;15.24;87.89
36834;BME280;48003;52.084;5.224;2023-04-28T10:31:08;101021.0;;;14.83;89.59
36834;BME280;48003;52.084;5.224;2023-04-28T10:32:45;101026.0;;;15.4;87.2
36834;BME280;48003;52.084;5.224;2023-04-28T10:34:23;101022.0;;;15.26;88.1
36834;BME280;48003;52.084;5.224;2023-04-28T10:38:09;101021.0;;;15.49;86.75
36834;BME280;48003;52.084;5.224;2023-04-28T10:40:50;101025.0;;;15.42;87.11
36834;BME280;48003;52.084;5.224;2023-04-28T10:42:50;101026.0;;;15.63;85.87
36834;BME280;48003;52.084;5.224;2023-04-28T10:44:41;101023.0;;;15.46;86.28
36834;BME280;48003;52.084;5.224;2023-04-28T10:48:01;101025.0;;;14.98;89.13
36834;BME280;48003;52.084;5.224;2023-04-28T10:50:09;101023.0;;;14.97;89.17
36834;BME280;48003;52.084;5.224;2023-04-28T10:51:46;101027.0;;;14.77;91.24
36834;BME280;48003;52.084;5.224;2023-04-28T10:54:06;101022.0;;;14.76;91.59
36834;BME280;48003;52.084;5.224;2023-04-28T10:55:43;101023.0;;;14.86;92.45
36834;BME280;48003;52.084;5.224;2023-04-28T10:57:20;101026.0;;;14.98;92.56
36834;BME280;48003;52.084;5.224;2023-04-28T11:00:33;101027.0;;;15.43;89.9
36834;BME280;48003;52.084;5.224;2023-04-28T11:02:41;101025.0;;;15.48;89.22
36834;BME280;48003;52.084;5.224;2023-04-28T11:04:17;101023.0;;;15.04;91.21
36834;BME280;48003;52.084;5.224;2023-04-28T11:06:26;101023.0;;;15.37;90.94
36834;BME280;48003;52.084;5.224;2023-04-28T11:08:33;101030.0;;;15.01;92.74
36834;BME280;48003;52.084;5.224;2023-04-28T11:10:09;101022.0;;;14.64;95.55
36834;BME280;48003;52.084;5.224;2023-04-28T11:12:03;101016.0;;;15.06;94.28
36834;BME280;48003;52.084;5.224;2023-04-28T11:13:40;101019.0;;;15.35;92.63
36834;BME280;48003;52.084;5.224;2023-04-28T11:18:43;101007.0;;;15.01;93.73
36834;BME280;48003;52.084;5.224;2023-04-28T11:20:24;101016.0;;;15.5;90.66
36834;BME280;48003;52.084;5.224;2023-04-28T11:22:03;101005.0;;;15.09;92.68